Story City, IA (50248)

7:34 PM CDT on April 30, 2017 (GMT -0500)
Prairie Ridge | | Change Station

Elev 1010 ft 42.19 °N, 93.58 °W | Updated 10 seconds ago

Rain
Rain
44.8 °F
Feels Like 45 °F
N
1.3
Wind Variable Wind from NNW
Gusts 2.5 mph

Today
High -- | Low -- °F
--% Chance of Precip.
Yesterday
High -- | Low -- °F
Precip. -- in
Pressure 29.57 in
Visibility 2.0 miles
Clouds Few 2300 ft
Mostly Cloudy 3800 ft
Overcast 5000 ft
Windchill 45 °F
Dew Point 44 °F
Humidity 96%
Rainfall 0.81 in
Snow Depth Not available.
6:10 AM 8:12 PM
Waxing Crescent, 27% visible
SPECI KAMW 010019Z AUTO 02010KT 2SM RA BR FEW023 BKN038 OVC050 07/07 A2957 RMK AO2 P0005 T00670067
Pressure 29.57 in
Visibility 2.0 miles
Clouds Few 2300 ft
Mostly Cloudy 3800 ft
Overcast 5000 ft
Windchill 45 °F
Dew Point 44 °F
Humidity 96%
Rainfall 0.81 in
Snow Depth Not available.
6:10 AM 8:12 PM
Waxing Crescent, 27% visible
SPECI KAMW 010019Z AUTO 02010KT 2SM RA BR FEW023 BKN038 OVC050 07/07 A2957 RMK AO2 P0005 T00670067

Get Severe Weather Alerts

Thanks for signing up!

Be on the lookout for a verification email in your inbox.

You'll start receiving the daily forecast at 8 AM.

×

10-Day Weather Forecast

Almanac

Astronomy

Apr. 30, 2017 Rise Set
Actual Time
Civil Twilight
Nautical Twilight
Astronomical Twilight
Moon
Length of Visible Light
Length of Day
Tomorrow will be .
, % of the Moon is Illuminated

Today's Extremes

State Highs State Lows

Community

WunderPhotos

WunderBlog® & News

Nearby

Air Quality

  Air Quality AQ Index Pollutant
Not available.

Snow Depth

Station Depth Elevation

Earthquake Activity

City Distance Mag. Time & Date
Minimum magnitude displayed is 2.5.

Coastal Water Temperatures

Place Temperature

Stations

Nearby Weather Stations

Station Location Temp. Windchill Dew Point Humidity Wind Precip. Elev Updated Type
                   

Watches & Warnings

There are currently no watches in effect.